Greentown, OH (44630)

11:58 PM EST on November 23, 2014 (GMT -0500)
The Boroughs | Change Station
CLOSE
Current Station
Personal Weather Station
Location: Uniontown, OH
Elevation: 1125 ft
Nearby Weather Stations
Active Advisory: High Wind Watch

Elev 1125 ft 40.95 °N, 81.42 °W | Updated 12 minutes ago

Light Rain
Light Rain Mist
53.3 °F
Feels Like 53.3 °F
N
10.0
Wind Variable Wind from ENE
Gusts 13.0 mph

Today
High -- | Low -- °F
--% Chance of Precip.
Yesterday
High -- | Low -- °F
Precip. -- in
7:22 AM 5:01 PM
Waxing Crescent, 3% visible
Pressure 29.39 in
Visibility 5.0 miles
Clouds Mostly Cloudy 800 ft
Overcast 1400 ft
Dew Point 52 °F
Humidity 94%
Rainfall 0.42 in
Snow Depth Not available.
UV 0 out of 12
Pollen .10 out of 12
Air Quality Not available.
Flu Activity Not available.
METAR KCAK 240451Z 18015G22KT 5SM -RA BR BKN008 OVC014 12/11 A2939 RMK AO2 SLP951 P0018 T01220106 401560056 $

More Conditions Fewer Conditions

Pressure 29.39 in
Visibility 5.0 miles
Clouds Mostly Cloudy 800 ft
Overcast 1400 ft
Dew Point 52 °F
Humidity 94%
Rainfall 0.42 in
Snow Depth Not available.
UV 0 out of 12
Pollen .10 out of 12
Air Quality Not available.
Flu Activity Not available.
METAR KCAK 240451Z 18015G22KT 5SM -RA BR BKN008 OVC014 12/11 A2939 RMK AO2 SLP951 P0018 T01220106 401560056 $

More Conditions Fewer Conditions

10-Day Weather Forecast

Almanac

Astronomy

Nov. 23, 2014 Rise Set
Actual Time
Civil Twilight
Nautical Twilight
Astronomical Twilight
Moon
Length of Visible Light
Length of Day
Tomorrow will be .
, % of the Moon is Illuminated

Today's Extremes

State Highs State Lows

Community

WunderPhotos

Upload Photos

1,773,267 photos uploaded!

WunderBlogs® & News

Nearby

Air Quality

  Air Quality AQ Index Pollutant
Not available.

Snow Depth

Station Depth Elevation

Earthquake Activity

City Distance Mag. Time & Date
Minimum magnitude displayed is 2.5.

Coastal Water Temperatures

Place Temperature

Nearby Weather Stations